sensor_id;sensor_type;location;lat;lon;timestamp;P1;durP1;ratioP1;P2;durP2;ratioP2
48613;SDS011;34408;51.426;5.444;2023-02-28T00:01:25;5.13;;;3.13;;
48613;SDS011;34408;51.426;5.444;2023-02-28T00:03:54;6.72;;;3.45;;
48613;SDS011;34408;51.426;5.444;2023-02-28T00:06:22;11.18;;;4.03;;
48613;SDS011;34408;51.426;5.444;2023-02-28T00:08:50;8.15;;;3.92;;
48613;SDS011;34408;51.426;5.444;2023-02-28T00:11:19;7.50;;;4.05;;
48613;SDS011;34408;51.426;5.444;2023-02-28T00:13:47;9.48;;;3.90;;
48613;SDS011;34408;51.426;5.444;2023-02-28T00:16:16;6.85;;;3.55;;
48613;SDS011;34408;51.426;5.444;2023-02-28T00:18:45;7.57;;;3.25;;
48613;SDS011;34408;51.426;5.444;2023-02-28T00:21:14;8.93;;;4.53;;
48613;SDS011;34408;51.426;5.444;2023-02-28T00:23:42;5.93;;;3.97;;
48613;SDS011;34408;51.426;5.444;2023-02-28T00:26:11;8.35;;;4.25;;
48613;SDS011;34408;51.426;5.444;2023-02-28T00:28:40;6.93;;;3.85;;
48613;SDS011;34408;51.426;5.444;2023-02-28T00:31:08;7.03;;;3.80;;
48613;SDS011;34408;51.426;5.444;2023-02-28T00:33:35;7.43;;;3.50;;
48613;SDS011;34408;51.426;5.444;2023-02-28T00:36:04;9.95;;;4.15;;
48613;SDS011;34408;51.426;5.444;2023-02-28T00:38:33;6.53;;;3.88;;
48613;SDS011;34408;51.426;5.444;2023-02-28T00:41:01;7.13;;;3.50;;
48613;SDS011;34408;51.426;5.444;2023-02-28T00:43:31;10.85;;;3.90;;
48613;SDS011;34408;51.426;5.444;2023-02-28T00:46:02;11.20;;;4.32;;
48613;SDS011;34408;51.426;5.444;2023-02-28T00:48:30;9.25;;;4.13;;
48613;SDS011;34408;51.426;5.444;2023-02-28T00:50:59;6.00;;;4.07;;
48613;SDS011;34408;51.426;5.444;2023-02-28T00:53:27;9.23;;;4.18;;
48613;SDS011;34408;51.426;5.444;2023-02-28T00:55:55;6.18;;;4.00;;
48613;SDS011;34408;51.426;5.444;2023-02-28T00:58:22;9.35;;;4.72;;
48613;SDS011;34408;51.426;5.444;2023-02-28T01:00:50;8.35;;;4.43;;
48613;SDS011;34408;51.426;5.444;2023-02-28T01:03:20;8.00;;;4.40;;
48613;SDS011;34408;51.426;5.444;2023-02-28T01:05:49;7.47;;;4.18;;
48613;SDS011;34408;51.426;5.444;2023-02-28T01:08:19;7.00;;;4.00;;
48613;SDS011;34408;51.426;5.444;2023-02-28T01:10:47;10.77;;;4.35;;
48613;SDS011;34408;51.426;5.444;2023-02-28T01:13:15;7.03;;;4.00;;
48613;SDS011;34408;51.426;5.444;2023-02-28T01:15:45;6.75;;;3.70;;
48613;SDS011;34408;51.426;5.444;2023-02-28T01:18:16;8.98;;;4.10;;
48613;SDS011;34408;51.426;5.444;2023-02-28T01:20:45;9.05;;;4.38;;
48613;SDS011;34408;51.426;5.444;2023-02-28T01:23:13;6.07;;;3.78;;
48613;SDS011;34408;51.426;5.444;2023-02-28T01:25:41;8.60;;;3.78;;
48613;SDS011;34408;51.426;5.444;2023-02-28T01:28:08;6.00;;;3.88;;
48613;SDS011;34408;51.426;5.444;2023-02-28T01:30:36;6.70;;;4.07;;
48613;SDS011;34408;51.426;5.444;2023-02-28T01:33:04;8.93;;;4.25;;
48613;SDS011;34408;51.426;5.444;2023-02-28T01:35:32;6.53;;;4.13;;
48613;SDS011;34408;51.426;5.444;2023-02-28T01:38:01;7.05;;;4.47;;
48613;SDS011;34408;51.426;5.444;2023-02-28T01:40:46;8.70;;;4.03;;
48613;SDS011;34408;51.426;5.444;2023-02-28T01:43:17;7.18;;;4.18;;
48613;SDS011;34408;51.426;5.444;2023-02-28T01:45:49;5.57;;;3.35;;
48613;SDS011;34408;51.426;5.444;2023-02-28T01:48:18;6.65;;;4.00;;
48613;SDS011;34408;51.426;5.444;2023-02-28T01:50:48;9.00;;;3.60;;
48613;SDS011;34408;51.426;5.444;2023-02-28T01:53:18;8.55;;;4.18;;
48613;SDS011;34408;51.426;5.444;2023-02-28T01:55:49;8.18;;;3.67;;
48613;SDS011;34408;51.426;5.444;2023-02-28T01:58:20;6.07;;;3.88;;
48613;SDS011;34408;51.426;5.444;2023-02-28T02:00:48;7.90;;;4.00;;
48613;SDS011;34408;51.426;5.444;2023-02-28T02:03:17;8.27;;;4.63;;
48613;SDS011;34408;51.426;5.444;2023-02-28T02:05:47;7.57;;;4.13;;
48613;SDS011;34408;51.426;5.444;2023-02-28T02:08:17;6.75;;;3.63;;
48613;SDS011;34408;51.426;5.444;2023-02-28T02:10:50;6.30;;;3.80;;
48613;SDS011;34408;51.426;5.444;2023-02-28T02:13:24;8.35;;;3.60;;
48613;SDS011;34408;51.426;5.444;2023-02-28T02:16:16;5.70;;;3.40;;
48613;SDS011;34408;51.426;5.444;2023-02-28T02:18:57;6.47;;;3.20;;
48613;SDS011;34408;51.426;5.444;2023-02-28T02:21:47;6.30;;;3.72;;
48613;SDS011;34408;51.426;5.444;2023-02-28T02:24:48;10.20;;;3.90;;
48613;SDS011;34408;51.426;5.444;2023-02-28T02:27:28;7.30;;;3.85;;
48613;SDS011;34408;51.426;5.444;2023-02-28T02:30:19;7.85;;;3.60;;
48613;SDS011;34408;51.426;5.444;2023-02-28T02:33:22;7.05;;;3.47;;
48613;SDS011;34408;51.426;5.444;2023-02-28T02:36:05;7.20;;;4.00;;
48613;SDS011;34408;51.426;5.444;2023-02-28T02:38:42;5.00;;;3.22;;
48613;SDS011;34408;51.426;5.444;2023-02-28T02:41:17;5.85;;;3.45;;
48613;SDS011;34408;51.426;5.444;2023-02-28T02:43:50;5.03;;;3.60;;
48613;SDS011;34408;51.426;5.444;2023-02-28T02:46:20;6.88;;;3.47;;
48613;SDS011;34408;51.426;5.444;2023-02-28T02:48:52;5.25;;;3.30;;
48613;SDS011;34408;51.426;5.444;2023-02-28T02:51:25;6.90;;;3.88;;
48613;SDS011;34408;51.426;5.444;2023-02-28T02:53:56;6.65;;;3.10;;
48613;SDS011;34408;51.426;5.444;2023-02-28T02:56:29;9.48;;;3.55;;
48613;SDS011;34408;51.426;5.444;2023-02-28T02:59:01;6.25;;;3.80;;
48613;SDS011;34408;51.426;5.444;2023-02-28T03:01:31;7.78;;;3.65;;
48613;SDS011;34408;51.426;5.444;2023-02-28T03:04:03;5.63;;;3.75;;
48613;SDS011;34408;51.426;5.444;2023-02-28T03:06:35;8.30;;;3.30;;
48613;SDS011;34408;51.426;5.444;2023-02-28T03:09:03;6.35;;;4.25;;
48613;SDS011;34408;51.426;5.444;2023-02-28T03:11:31;8.15;;;3.72;;
48613;SDS011;34408;51.426;5.444;2023-02-28T03:17:08;5.82;;;3.80;;
48613;SDS011;34408;51.426;5.444;2023-02-28T03:19:51;5.68;;;3.55;;
48613;SDS011;34408;51.426;5.444;2023-02-28T03:22:36;7.13;;;3.88;;
48613;SDS011;34408;51.426;5.444;2023-02-28T03:25:17;8.27;;;4.18;;
48613;SDS011;34408;51.426;5.444;2023-02-28T03:27:55;5.75;;;3.47;;
48613;SDS011;34408;51.426;5.444;2023-02-28T03:30:33;6.45;;;3.90;;
48613;SDS011;34408;51.426;5.444;2023-02-28T03:33:08;8.27;;;4.27;;
48613;SDS011;34408;51.426;5.444;2023-02-28T03:35:41;11.80;;;3.78;;
48613;SDS011;34408;51.426;5.444;2023-02-28T03:38:14;6.28;;;4.07;;
48613;SDS011;34408;51.426;5.444;2023-02-28T03:40:47;9.30;;;4.20;;
48613;SDS011;34408;51.426;5.444;2023-02-28T03:43:22;11.95;;;4.75;;
48613;SDS011;34408;51.426;5.444;2023-02-28T03:45:55;5.82;;;3.83;;
48613;SDS011;34408;51.426;5.444;2023-02-28T03:48:27;5.65;;;3.55;;
48613;SDS011;34408;51.426;5.444;2023-02-28T03:51:00;7.18;;;3.50;;
48613;SDS011;34408;51.426;5.444;2023-02-28T03:53:32;8.27;;;4.10;;
48613;SDS011;34408;51.426;5.444;2023-02-28T03:56:03;8.27;;;3.53;;
48613;SDS011;34408;51.426;5.444;2023-02-28T03:58:38;6.75;;;4.05;;
48613;SDS011;34408;51.426;5.444;2023-02-28T04:01:12;5.55;;;3.63;;
48613;SDS011;34408;51.426;5.444;2023-02-28T04:03:44;5.68;;;3.53;;
48613;SDS011;34408;51.426;5.444;2023-02-28T04:06:13;6.45;;;3.38;;
48613;SDS011;34408;51.426;5.444;2023-02-28T04:08:45;7.05;;;4.45;;
48613;SDS011;34408;51.426;5.444;2023-02-28T04:11:16;6.57;;;3.42;;
48613;SDS011;34408;51.426;5.444;2023-02-28T04:13:47;6.88;;;3.13;;
48613;SDS011;34408;51.426;5.444;2023-02-28T04:16:15;7.97;;;3.65;;
48613;SDS011;34408;51.426;5.444;2023-02-28T04:18:59;7.90;;;3.60;;
48613;SDS011;34408;51.426;5.444;2023-02-28T04:21:29;6.43;;;3.63;;
48613;SDS011;34408;51.426;5.444;2023-02-28T04:23:58;5.47;;;3.50;;
48613;SDS011;34408;51.426;5.444;2023-02-28T04:26:28;6.78;;;3.67;;
48613;SDS011;34408;51.426;5.444;2023-02-28T04:28:57;8.20;;;3.80;;
48613;SDS011;34408;51.426;5.444;2023-02-28T04:31:24;6.90;;;3.95;;
48613;SDS011;34408;51.426;5.444;2023-02-28T04:33:53;5.30;;;3.20;;
48613;SDS011;34408;51.426;5.444;2023-02-28T04:36:21;7.38;;;3.60;;
48613;SDS011;34408;51.426;5.444;2023-02-28T04:38:49;6.45;;;3.33;;
48613;SDS011;34408;51.426;5.444;2023-02-28T04:41:19;7.78;;;3.35;;
48613;SDS011;34408;51.426;5.444;2023-02-28T04:43:46;7.57;;;3.78;;
48613;SDS011;34408;51.426;5.444;2023-02-28T04:46:14;5.78;;;3.58;;
48613;SDS011;34408;51.426;5.444;2023-02-28T04:48:43;9.05;;;3.72;;
48613;SDS011;34408;51.426;5.444;2023-02-28T04:51:12;6.32;;;3.42;;
48613;SDS011;34408;51.426;5.444;2023-02-28T04:53:41;6.47;;;3.78;;
48613;SDS011;34408;51.426;5.444;2023-02-28T04:56:10;5.72;;;3.50;;
48613;SDS011;34408;51.426;5.444;2023-02-28T04:58:40;6.43;;;3.70;;
48613;SDS011;34408;51.426;5.444;2023-02-28T05:01:16;8.27;;;3.92;;
48613;SDS011;34408;51.426;5.444;2023-02-28T05:03:45;6.72;;;3.63;;
48613;SDS011;34408;51.426;5.444;2023-02-28T05:06:14;6.28;;;3.65;;
48613;SDS011;34408;51.426;5.444;2023-02-28T05:08:42;6.18;;;3.50;;
48613;SDS011;34408;51.426;5.444;2023-02-28T05:11:13;7.43;;;3.80;;
48613;SDS011;34408;51.426;5.444;2023-02-28T05:13:45;7.15;;;3.47;;
48613;SDS011;34408;51.426;5.444;2023-02-28T05:16:13;5.32;;;3.33;;
48613;SDS011;34408;51.426;5.444;2023-02-28T05:18:42;7.32;;;3.22;;
48613;SDS011;34408;51.426;5.444;2023-02-28T05:21:27;8.57;;;3.65;;
48613;SDS011;34408;51.426;5.444;2023-02-28T05:23:57;8.95;;;3.88;;
48613;SDS011;34408;51.426;5.444;2023-02-28T05:26:26;8.55;;;3.88;;
48613;SDS011;34408;51.426;5.444;2023-02-28T05:28:56;6.45;;;3.70;;
48613;SDS011;34408;51.426;5.444;2023-02-28T05:31:24;7.15;;;3.78;;
48613;SDS011;34408;51.426;5.444;2023-02-28T05:33:52;8.27;;;3.67;;
48613;SDS011;34408;51.426;5.444;2023-02-28T05:36:20;7.63;;;3.83;;
48613;SDS011;34408;51.426;5.444;2023-02-28T05:38:48;6.55;;;3.20;;
48613;SDS011;34408;51.426;5.444;2023-02-28T05:41:17;6.75;;;3.30;;
48613;SDS011;34408;51.426;5.444;2023-02-28T05:43:46;10.23;;;3.47;;
48613;SDS011;34408;51.426;5.444;2023-02-28T05:46:16;5.70;;;3.47;;
48613;SDS011;34408;51.426;5.444;2023-02-28T05:48:46;4.78;;;3.25;;
48613;SDS011;34408;51.426;5.444;2023-02-28T05:51:14;10.32;;;3.20;;
48613;SDS011;34408;51.426;5.444;2023-02-28T05:53:42;5.93;;;3.50;;
48613;SDS011;34408;51.426;5.444;2023-02-28T05:56:10;7.15;;;4.03;;
48613;SDS011;34408;51.426;5.444;2023-02-28T05:58:38;8.05;;;4.00;;
48613;SDS011;34408;51.426;5.444;2023-02-28T06:01:20;7.55;;;3.70;;
48613;SDS011;34408;51.426;5.444;2023-02-28T06:03:50;7.95;;;3.60;;
48613;SDS011;34408;51.426;5.444;2023-02-28T06:06:19;6.68;;;3.78;;
48613;SDS011;34408;51.426;5.444;2023-02-28T06:08:46;6.72;;;3.42;;
48613;SDS011;34408;51.426;5.444;2023-02-28T06:11:14;11.48;;;3.63;;
48613;SDS011;34408;51.426;5.444;2023-02-28T06:13:42;8.02;;;3.63;;
48613;SDS011;34408;51.426;5.444;2023-02-28T06:16:10;6.13;;;3.33;;
48613;SDS011;34408;51.426;5.444;2023-02-28T06:18:40;7.63;;;3.70;;
48613;SDS011;34408;51.426;5.444;2023-02-28T06:21:08;7.95;;;3.75;;
48613;SDS011;34408;51.426;5.444;2023-02-28T06:23:35;6.63;;;3.63;;
48613;SDS011;34408;51.426;5.444;2023-02-28T06:26:03;7.03;;;3.50;;
48613;SDS011;34408;51.426;5.444;2023-02-28T06:28:31;4.03;;;2.65;;
48613;SDS011;34408;51.426;5.444;2023-02-28T06:30:59;7.50;;;3.40;;
48613;SDS011;34408;51.426;5.444;2023-02-28T06:33:32;6.07;;;3.55;;
48613;SDS011;34408;51.426;5.444;2023-02-28T06:36:01;6.13;;;3.03;;
48613;SDS011;34408;51.426;5.444;2023-02-28T06:38:30;7.07;;;3.65;;
48613;SDS011;34408;51.426;5.444;2023-02-28T06:40:58;5.57;;;3.08;;
48613;SDS011;34408;51.426;5.444;2023-02-28T06:43:28;6.78;;;2.88;;
48613;SDS011;34408;51.426;5.444;2023-02-28T06:45:58;6.85;;;3.25;;
48613;SDS011;34408;51.426;5.444;2023-02-28T06:48:27;4.97;;;2.75;;
48613;SDS011;34408;51.426;5.444;2023-02-28T06:51:02;5.10;;;3.10;;
48613;SDS011;34408;51.426;5.444;2023-02-28T06:53:31;10.15;;;3.40;;
48613;SDS011;34408;51.426;5.444;2023-02-28T06:55:59;6.13;;;3.00;;
48613;SDS011;34408;51.426;5.444;2023-02-28T06:58:31;8.40;;;3.00;;
48613;SDS011;34408;51.426;5.444;2023-02-28T07:00:59;11.07;;;3.50;;
48613;SDS011;34408;51.426;5.444;2023-02-28T07:03:27;5.60;;;3.25;;
48613;SDS011;34408;51.426;5.444;2023-02-28T07:05:55;7.38;;;3.00;;
48613;SDS011;34408;51.426;5.444;2023-02-28T07:08:25;6.13;;;2.92;;
48613;SDS011;34408;51.426;5.444;2023-02-28T07:10:53;6.55;;;2.67;;
48613;SDS011;34408;51.426;5.444;2023-02-28T07:13:22;6.65;;;3.17;;
48613;SDS011;34408;51.426;5.444;2023-02-28T07:15:54;5.80;;;2.95;;
48613;SDS011;34408;51.426;5.444;2023-02-28T07:18:22;5.75;;;2.53;;
48613;SDS011;34408;51.426;5.444;2023-02-28T07:20:51;4.10;;;2.47;;
48613;SDS011;34408;51.426;5.444;2023-02-28T07:23:19;7.70;;;2.42;;
48613;SDS011;34408;51.426;5.444;2023-02-28T07:25:49;4.70;;;2.88;;
48613;SDS011;34408;51.426;5.444;2023-02-28T07:28:17;3.97;;;2.65;;
48613;SDS011;34408;51.426;5.444;2023-02-28T07:30:45;4.63;;;2.47;;
48613;SDS011;34408;51.426;5.444;2023-02-28T07:33:14;3.53;;;2.05;;
48613;SDS011;34408;51.426;5.444;2023-02-28T07:35:42;5.25;;;2.50;;
48613;SDS011;34408;51.426;5.444;2023-02-28T07:38:10;3.83;;;2.45;;
48613;SDS011;34408;51.426;5.444;2023-02-28T07:40:39;8.38;;;3.00;;
48613;SDS011;34408;51.426;5.444;2023-02-28T07:43:08;4.47;;;2.30;;
48613;SDS011;34408;51.426;5.444;2023-02-28T07:45:36;4.22;;;2.13;;
48613;SDS011;34408;51.426;5.444;2023-02-28T07:48:04;3.47;;;2.75;;
48613;SDS011;34408;51.426;5.444;2023-02-28T07:50:32;5.07;;;3.55;;
48613;SDS011;34408;51.426;5.444;2023-02-28T07:53:01;5.72;;;2.47;;
48613;SDS011;34408;51.426;5.444;2023-02-28T07:55:29;4.75;;;2.42;;
48613;SDS011;34408;51.426;5.444;2023-02-28T07:57:56;5.90;;;2.67;;
48613;SDS011;34408;51.426;5.444;2023-02-28T08:00:26;5.13;;;2.40;;
48613;SDS011;34408;51.426;5.444;2023-02-28T08:02:55;4.20;;;2.55;;
48613;SDS011;34408;51.426;5.444;2023-02-28T08:05:22;6.20;;;3.10;;
48613;SDS011;34408;51.426;5.444;2023-02-28T08:07:50;4.38;;;2.22;;
48613;SDS011;34408;51.426;5.444;2023-02-28T08:10:19;3.20;;;1.90;;
48613;SDS011;34408;51.426;5.444;2023-02-28T08:12:47;3.42;;;2.08;;
48613;SDS011;34408;51.426;5.444;2023-02-28T08:15:15;3.45;;;1.85;;
48613;SDS011;34408;51.426;5.444;2023-02-28T08:17:44;2.90;;;1.88;;
48613;SDS011;34408;51.426;5.444;2023-02-28T08:20:12;5.10;;;2.30;;
48613;SDS011;34408;51.426;5.444;2023-02-28T08:22:40;3.92;;;1.98;;
48613;SDS011;34408;51.426;5.444;2023-02-28T08:25:11;6.35;;;2.20;;
48613;SDS011;34408;51.426;5.444;2023-02-28T08:27:41;4.85;;;2.33;;
48613;SDS011;34408;51.426;5.444;2023-02-28T08:30:09;6.15;;;2.30;;
48613;SDS011;34408;51.426;5.444;2023-02-28T08:32:38;4.40;;;1.90;;
48613;SDS011;34408;51.426;5.444;2023-02-28T08:35:08;7.28;;;2.50;;
48613;SDS011;34408;51.426;5.444;2023-02-28T08:37:36;5.55;;;2.15;;
48613;SDS011;34408;51.426;5.444;2023-02-28T08:40:05;4.18;;;2.50;;
48613;SDS011;34408;51.426;5.444;2023-02-28T08:42:33;6.55;;;1.92;;
48613;SDS011;34408;51.426;5.444;2023-02-28T08:45:01;6.18;;;2.00;;
48613;SDS011;34408;51.426;5.444;2023-02-28T08:47:29;2.83;;;1.70;;
48613;SDS011;34408;51.426;5.444;2023-02-28T08:49:57;2.67;;;1.95;;
48613;SDS011;34408;51.426;5.444;2023-02-28T08:52:26;2.53;;;1.52;;
48613;SDS011;34408;51.426;5.444;2023-02-28T08:54:54;6.47;;;1.77;;
48613;SDS011;34408;51.426;5.444;2023-02-28T08:57:22;4.97;;;2.08;;
48613;SDS011;34408;51.426;5.444;2023-02-28T08:59:52;5.00;;;1.90;;
48613;SDS011;34408;51.426;5.444;2023-02-28T09:02:19;4.95;;;2.20;;
48613;SDS011;34408;51.426;5.444;2023-02-28T09:04:47;4.60;;;2.10;;
48613;SDS011;34408;51.426;5.444;2023-02-28T09:07:15;3.97;;;2.13;;
48613;SDS011;34408;51.426;5.444;2023-02-28T09:09:44;2.33;;;1.60;;
48613;SDS011;34408;51.426;5.444;2023-02-28T09:12:22;3.10;;;1.70;;
48613;SDS011;34408;51.426;5.444;2023-02-28T09:14:50;3.25;;;1.63;;
48613;SDS011;34408;51.426;5.444;2023-02-28T09:17:18;4.07;;;2.10;;
48613;SDS011;34408;51.426;5.444;2023-02-28T09:19:47;3.88;;;1.80;;
48613;SDS011;34408;51.426;5.444;2023-02-28T09:22:15;2.75;;;1.60;;
48613;SDS011;34408;51.426;5.444;2023-02-28T09:24:44;3.58;;;1.88;;
48613;SDS011;34408;51.426;5.444;2023-02-28T09:27:12;5.13;;;1.70;;
48613;SDS011;34408;51.426;5.444;2023-02-28T09:29:40;2.85;;;1.85;;
48613;SDS011;34408;51.426;5.444;2023-02-28T09:32:07;2.78;;;1.73;;
48613;SDS011;34408;51.426;5.444;2023-02-28T09:34:36;3.00;;;1.58;;
48613;SDS011;34408;51.426;5.444;2023-02-28T09:37:05;4.22;;;1.63;;
48613;SDS011;34408;51.426;5.444;2023-02-28T09:39:32;3.53;;;1.40;;
48613;SDS011;34408;51.426;5.444;2023-02-28T09:42:02;3.17;;;1.23;;
48613;SDS011;34408;51.426;5.444;2023-02-28T09:44:35;3.63;;;1.70;;
48613;SDS011;34408;51.426;5.444;2023-02-28T09:47:07;2.88;;;1.70;;
48613;SDS011;34408;51.426;5.444;2023-02-28T09:49:41;3.40;;;1.58;;
48613;SDS011;34408;51.426;5.444;2023-02-28T09:52:14;2.22;;;1.63;;
48613;SDS011;34408;51.426;5.444;2023-02-28T09:54:45;2.63;;;1.52;;
48613;SDS011;34408;51.426;5.444;2023-02-28T09:57:17;2.40;;;1.40;;
48613;SDS011;34408;51.426;5.444;2023-02-28T10:00:02;1.75;;;1.45;;
48613;SDS011;34408;51.426;5.444;2023-02-28T10:02:40;2.60;;;1.65;;
48613;SDS011;34408;51.426;5.444;2023-02-28T10:05:26;3.42;;;1.38;;
48613;SDS011;34408;51.426;5.444;2023-02-28T10:08:02;4.30;;;1.60;;
48613;SDS011;34408;51.426;5.444;2023-02-28T10:13:12;2.22;;;1.40;;
48613;SDS011;34408;51.426;5.444;2023-02-28T10:15:46;1.77;;;1.20;;
48613;SDS011;34408;51.426;5.444;2023-02-28T10:18:19;5.30;;;1.70;;
48613;SDS011;34408;51.426;5.444;2023-02-28T10:20:51;3.30;;;1.48;;
48613;SDS011;34408;51.426;5.444;2023-02-28T10:23:24;2.38;;;1.40;;
48613;SDS011;34408;51.426;5.444;2023-02-28T10:25:57;2.50;;;1.40;;
48613;SDS011;34408;51.426;5.444;2023-02-28T10:28:29;2.83;;;1.40;;
48613;SDS011;34408;51.426;5.444;2023-02-28T10:30:58;3.92;;;1.52;;
48613;SDS011;34408;51.426;5.444;2023-02-28T10:33:28;2.65;;;1.35;;
48613;SDS011;34408;51.426;5.444;2023-02-28T10:35:57;3.28;;;1.38;;
48613;SDS011;34408;51.426;5.444;2023-02-28T10:38:26;2.53;;;1.33;;
48613;SDS011;34408;51.426;5.444;2023-02-28T10:41:03;2.05;;;1.33;;
48613;SDS011;34408;51.426;5.444;2023-02-28T10:43:33;2.83;;;1.30;;
48613;SDS011;34408;51.426;5.444;2023-02-28T10:46:02;2.50;;;1.20;;
48613;SDS011;34408;51.426;5.444;2023-02-28T10:48:33;3.78;;;1.60;;
48613;SDS011;34408;51.426;5.444;2023-02-28T10:51:04;2.50;;;1.30;;
48613;SDS011;34408;51.426;5.444;2023-02-28T10:53:35;3.25;;;1.48;;
48613;SDS011;34408;51.426;5.444;2023-02-28T10:56:25;3.13;;;1.40;;
48613;SDS011;34408;51.426;5.444;2023-02-28T10:58:56;3.72;;;1.65;;
48613;SDS011;34408;51.426;5.444;2023-02-28T11:01:34;2.25;;;1.10;;
48613;SDS011;34408;51.426;5.444;2023-02-28T11:04:15;3.70;;;1.25;;
48613;SDS011;34408;51.426;5.444;2023-02-28T11:06:45;2.30;;;1.30;;
48613;SDS011;34408;51.426;5.444;2023-02-28T11:09:18;3.88;;;1.50;;
48613;SDS011;34408;51.426;5.444;2023-02-28T11:11:50;4.88;;;1.38;;
48613;SDS011;34408;51.426;5.444;2023-02-28T11:14:20;2.58;;;1.27;;
48613;SDS011;34408;51.426;5.444;2023-02-28T11:16:51;3.03;;;1.15;;
48613;SDS011;34408;51.426;5.444;2023-02-28T11:19:22;2.53;;;1.40;;
48613;SDS011;34408;51.426;5.444;2023-02-28T11:21:54;2.20;;;1.15;;
48613;SDS011;34408;51.426;5.444;2023-02-28T11:24:24;2.10;;;1.27;;
48613;SDS011;34408;51.426;5.444;2023-02-28T11:26:57;2.53;;;1.50;;
48613;SDS011;34408;51.426;5.444;2023-02-28T11:29:27;3.60;;;1.83;;
48613;SDS011;34408;51.426;5.444;2023-02-28T11:32:01;3.25;;;1.50;;
48613;SDS011;34408;51.426;5.444;2023-02-28T11:34:31;5.50;;;1.80;;
48613;SDS011;34408;51.426;5.444;2023-02-28T11:36:59;6.18;;;2.00;;
48613;SDS011;34408;51.426;5.444;2023-02-28T11:39:31;4.80;;;1.73;;
48613;SDS011;34408;51.426;5.444;2023-02-28T11:42:06;2.85;;;1.70;;
48613;SDS011;34408;51.426;5.444;2023-02-28T11:44:45;3.45;;;2.28;;
48613;SDS011;34408;51.426;5.444;2023-02-28T11:47:26;4.85;;;2.10;;
48613;SDS011;34408;51.426;5.444;2023-02-28T11:50:13;2.67;;;1.55;;
48613;SDS011;34408;51.426;5.444;2023-02-28T11:52:48;2.95;;;1.42;;
48613;SDS011;34408;51.426;5.444;2023-02-28T11:55:20;3.95;;;1.80;;
48613;SDS011;34408;51.426;5.444;2023-02-28T11:57:56;4.38;;;1.65;;
48613;SDS011;34408;51.426;5.444;2023-02-28T12:00:40;3.67;;;1.60;;
48613;SDS011;34408;51.426;5.444;2023-02-28T12:03:23;2.42;;;1.50;;
48613;SDS011;34408;51.426;5.444;2023-02-28T12:05:58;2.35;;;1.58;;
48613;SDS011;34408;51.426;5.444;2023-02-28T12:08:41;3.40;;;1.80;;
48613;SDS011;34408;51.426;5.444;2023-02-28T12:11:16;6.40;;;1.67;;
48613;SDS011;34408;51.426;5.444;2023-02-28T12:14:04;3.35;;;1.50;;
48613;SDS011;34408;51.426;5.444;2023-02-28T12:16:54;2.85;;;1.52;;
48613;SDS011;34408;51.426;5.444;2023-02-28T12:19:31;2.40;;;1.52;;
48613;SDS011;34408;51.426;5.444;2023-02-28T12:22:17;4.00;;;1.95;;
48613;SDS011;34408;51.426;5.444;2023-02-28T12:25:13;3.58;;;1.80;;
48613;SDS011;34408;51.426;5.444;2023-02-28T12:27:51;2.03;;;1.23;;
48613;SDS011;34408;51.426;5.444;2023-02-28T12:30:21;2.92;;;1.85;;
48613;SDS011;34408;51.426;5.444;2023-02-28T12:32:54;2.60;;;1.60;;
48613;SDS011;34408;51.426;5.444;2023-02-28T12:35:26;4.07;;;2.03;;
48613;SDS011;34408;51.426;5.444;2023-02-28T12:38:02;3.55;;;1.65;;
48613;SDS011;34408;51.426;5.444;2023-02-28T12:40:37;2.80;;;1.70;;
48613;SDS011;34408;51.426;5.444;2023-02-28T12:43:12;2.85;;;1.63;;
48613;SDS011;34408;51.426;5.444;2023-02-28T12:45:44;3.92;;;1.90;;
48613;SDS011;34408;51.426;5.444;2023-02-28T12:48:20;2.38;;;1.60;;
48613;SDS011;34408;51.426;5.444;2023-02-28T12:50:51;2.67;;;1.90;;
48613;SDS011;34408;51.426;5.444;2023-02-28T12:53:21;3.80;;;1.60;;
48613;SDS011;34408;51.426;5.444;2023-02-28T12:55:57;3.92;;;1.70;;
48613;SDS011;34408;51.426;5.444;2023-02-28T12:58:37;3.42;;;1.83;;
48613;SDS011;34408;51.426;5.444;2023-02-28T13:01:15;3.03;;;1.63;;
48613;SDS011;34408;51.426;5.444;2023-02-28T13:04:11;2.35;;;1.40;;
48613;SDS011;34408;51.426;5.444;2023-02-28T13:07:05;2.53;;;1.48;;
48613;SDS011;34408;51.426;5.444;2023-02-28T13:09:50;3.63;;;1.35;;
48613;SDS011;34408;51.426;5.444;2023-02-28T13:12:19;2.45;;;1.67;;
48613;SDS011;34408;51.426;5.444;2023-02-28T13:14:49;3.53;;;1.50;;
48613;SDS011;34408;51.426;5.444;2023-02-28T13:17:18;2.70;;;1.60;;
48613;SDS011;34408;51.426;5.444;2023-02-28T13:19:57;2.63;;;1.63;;
48613;SDS011;34408;51.426;5.444;2023-02-28T13:22:37;1.80;;;1.52;;
48613;SDS011;34408;51.426;5.444;2023-02-28T13:28:08;3.50;;;1.63;;
48613;SDS011;34408;51.426;5.444;2023-02-28T13:33:31;2.38;;;1.40;;
48613;SDS011;34408;51.426;5.444;2023-02-28T13:36:07;2.72;;;1.42;;
48613;SDS011;34408;51.426;5.444;2023-02-28T13:38:37;3.63;;;1.70;;
48613;SDS011;34408;51.426;5.444;2023-02-28T13:44:14;2.65;;;1.63;;
48613;SDS011;34408;51.426;5.444;2023-02-28T13:49:51;2.75;;;1.63;;
48613;SDS011;34408;51.426;5.444;2023-02-28T13:52:22;7.97;;;1.65;;
48613;SDS011;34408;51.426;5.444;2023-02-28T13:58:04;2.33;;;1.48;;
48613;SDS011;34408;51.426;5.444;2023-02-28T14:00:43;4.57;;;1.92;;
48613;SDS011;34408;51.426;5.444;2023-02-28T14:03:31;3.00;;;1.70;;
48613;SDS011;34408;51.426;5.444;2023-02-28T14:06:16;2.47;;;1.38;;
48613;SDS011;34408;51.426;5.444;2023-02-28T14:08:54;3.70;;;1.40;;
48613;SDS011;34408;51.426;5.444;2023-02-28T14:11:27;2.30;;;1.50;;
48613;SDS011;34408;51.426;5.444;2023-02-28T14:13:58;4.55;;;1.95;;
48613;SDS011;34408;51.426;5.444;2023-02-28T14:16:27;3.13;;;1.50;;
48613;SDS011;34408;51.426;5.444;2023-02-28T14:19:09;4.28;;;1.70;;
48613;SDS011;34408;51.426;5.444;2023-02-28T14:21:43;3.67;;;1.70;;
48613;SDS011;34408;51.426;5.444;2023-02-28T14:24:28;5.63;;;1.67;;
48613;SDS011;34408;51.426;5.444;2023-02-28T14:27:21;1.92;;;1.35;;
48613;SDS011;34408;51.426;5.444;2023-02-28T14:33:31;2.95;;;1.63;;
48613;SDS011;34408;51.426;5.444;2023-02-28T14:38:42;3.92;;;1.70;;
48613;SDS011;34408;51.426;5.444;2023-02-28T14:41:20;3.40;;;1.48;;
48613;SDS011;34408;51.426;5.444;2023-02-28T14:43:50;2.90;;;1.92;;
48613;SDS011;34408;51.426;5.444;2023-02-28T14:46:21;3.38;;;1.55;;
48613;SDS011;34408;51.426;5.444;2023-02-28T14:48:53;4.25;;;1.67;;
48613;SDS011;34408;51.426;5.444;2023-02-28T14:51:22;2.85;;;1.63;;
48613;SDS011;34408;51.426;5.444;2023-02-28T14:53:52;5.70;;;1.45;;
48613;SDS011;34408;51.426;5.444;2023-02-28T14:56:26;4.28;;;1.73;;
48613;SDS011;34408;51.426;5.444;2023-02-28T14:58:58;3.00;;;1.80;;
48613;SDS011;34408;51.426;5.444;2023-02-28T15:01:25;4.88;;;1.92;;
48613;SDS011;34408;51.426;5.444;2023-02-28T15:03:58;3.95;;;1.85;;
48613;SDS011;34408;51.426;5.444;2023-02-28T15:06:30;4.90;;;1.80;;
48613;SDS011;34408;51.426;5.444;2023-02-28T15:09:14;4.88;;;1.85;;
48613;SDS011;34408;51.426;5.444;2023-02-28T15:11:47;2.00;;;1.55;;
48613;SDS011;34408;51.426;5.444;2023-02-28T15:14:17;4.78;;;1.90;;
48613;SDS011;34408;51.426;5.444;2023-02-28T15:16:48;2.72;;;1.65;;
48613;SDS011;34408;51.426;5.444;2023-02-28T15:19:20;3.75;;;1.70;;
48613;SDS011;34408;51.426;5.444;2023-02-28T15:21:52;3.25;;;1.92;;
48613;SDS011;34408;51.426;5.444;2023-02-28T15:24:27;1.90;;;1.63;;
48613;SDS011;34408;51.426;5.444;2023-02-28T15:27:04;3.28;;;1.73;;
48613;SDS011;34408;51.426;5.444;2023-02-28T15:29:34;2.22;;;1.40;;
48613;SDS011;34408;51.426;5.444;2023-02-28T15:32:17;3.40;;;1.80;;
48613;SDS011;34408;51.426;5.444;2023-02-28T15:34:53;3.20;;;2.00;;
48613;SDS011;34408;51.426;5.444;2023-02-28T15:37:26;4.70;;;1.70;;
48613;SDS011;34408;51.426;5.444;2023-02-28T15:40:10;3.28;;;1.80;;
48613;SDS011;34408;51.426;5.444;2023-02-28T15:42:41;3.22;;;1.80;;
48613;SDS011;34408;51.426;5.444;2023-02-28T15:45:26;2.78;;;1.70;;